createdAt,value
2017-10-27T00:00:19.344Z,86.56
2017-10-27T00:02:47.605Z,86.55
2017-10-27T00:05:16.626Z,86.72
2017-10-27T00:07:44.881Z,87.00
2017-10-27T00:10:13.143Z,86.96
2017-10-27T00:12:42.163Z,87.12
2017-10-27T00:15:10.410Z,87.41
2017-10-27T00:17:39.439Z,87.75
2017-10-27T00:20:07.692Z,87.80
2017-10-27T00:22:36.719Z,88.03
2017-10-27T00:25:04.975Z,88.05
2017-10-27T00:27:33.239Z,87.97
2017-10-27T00:30:01.491Z,88.13
2017-10-27T00:32:29.759Z,88.15
2017-10-27T00:34:58.009Z,88.32
2017-10-27T00:37:26.272Z,88.52
2017-10-27T00:39:54.522Z,88.61
2017-10-27T00:42:22.792Z,88.64
2017-10-27T00:44:51.043Z,88.50
2017-10-27T00:47:19.303Z,88.70
2017-10-27T00:49:48.328Z,88.65
2017-10-27T00:52:17.355Z,88.77
2017-10-27T00:54:45.609Z,88.96
2017-10-27T00:57:13.871Z,88.76
2017-10-27T00:59:42.895Z,88.71
2017-10-27T01:02:11.151Z,88.80
2017-10-27T01:04:39.401Z,88.65
2017-10-27T01:07:08.427Z,88.75
2017-10-27T01:09:36.691Z,88.65
2017-10-27T01:12:05.716Z,88.67
2017-10-27T01:14:33.966Z,88.50
2017-10-27T01:17:02.250Z,88.53
2017-10-27T01:19:31.246Z,88.36
2017-10-27T01:21:59.519Z,88.40
2017-10-27T01:24:27.769Z,88.25
2017-10-27T01:26:56.795Z,88.11
2017-10-27T01:29:25.050Z,87.98
2017-10-27T01:31:53.312Z,87.91
2017-10-27T01:34:22.434Z,87.73
2017-10-27T01:36:50.697Z,87.75
2017-10-27T01:39:19.711Z,87.70
2017-10-27T01:41:47.970Z,87.57
2017-10-27T01:44:16.223Z,87.58
2017-10-27T01:46:45.253Z,87.46
2017-10-27T01:49:13.566Z,87.26
2017-10-27T01:51:41.821Z,87.23
2017-10-27T01:54:10.080Z,87.25
2017-10-27T01:56:38.336Z,87.09
2017-10-27T01:59:06.586Z,87.11
2017-10-27T02:01:34.851Z,86.94
2017-10-27T02:04:03.109Z,86.71
2017-10-27T02:06:31.366Z,86.54
2017-10-27T02:08:59.628Z,86.40
2017-10-27T02:11:27.943Z,86.48
2017-10-27T02:13:56.193Z,86.45
2017-10-27T02:16:24.452Z,86.34
2017-10-27T02:18:52.715Z,86.43
2017-10-27T02:21:21.726Z,86.10
2017-10-27T02:23:49.986Z,85.84
2017-10-27T02:26:18.237Z,85.88
2017-10-27T02:28:47.258Z,85.69
2017-10-27T02:31:15.514Z,85.87
2017-10-27T02:33:45.451Z,85.88
2017-10-27T02:36:13.695Z,85.57
2017-10-27T02:38:42.727Z,85.63
2017-10-27T02:41:10.970Z,85.92
2017-10-27T02:43:40.002Z,85.99
2017-10-27T02:46:08.258Z,86.01
2017-10-27T02:48:36.516Z,86.20
2017-10-27T02:51:05.634Z,86.50
2017-10-27T02:53:33.894Z,86.54
2017-10-27T02:56:02.920Z,86.59
2017-10-27T02:58:31.178Z,86.62
2017-10-27T03:00:59.467Z,86.58
2017-10-27T03:03:27.735Z,86.73
2017-10-27T03:05:55.984Z,86.70
2017-10-27T03:08:25.007Z,86.92
2017-10-27T03:10:53.270Z,86.87
2017-10-27T03:13:21.543Z,86.92
2017-10-27T03:15:49.794Z,87.05
2017-10-27T03:18:18.054Z,86.95
2017-10-27T03:20:46.306Z,86.71
2017-10-27T03:23:14.568Z,87.00
2017-10-27T03:25:42.813Z,87.29
2017-10-27T03:28:11.838Z,87.37
2017-10-27T03:30:40.086Z,87.40
2017-10-27T03:33:08.337Z,87.55
2017-10-27T03:35:36.589Z,87.23
2017-10-27T03:38:04.851Z,87.00
2017-10-27T03:40:33.107Z,87.11
2017-10-27T03:43:01.363Z,87.60
2017-10-27T03:45:30.374Z,87.49
2017-10-27T03:47:58.634Z,87.12
2017-10-27T03:50:26.894Z,86.36
2017-10-27T03:52:55.915Z,84.68
2017-10-27T03:55:24.158Z,84.02
2017-10-27T03:57:53.183Z,83.66
2017-10-27T04:00:21.430Z,82.40
2017-10-27T04:02:50.462Z,81.16
2017-10-27T04:05:18.698Z,80.01
2017-10-27T04:07:47.715Z,78.63
2017-10-27T04:10:15.957Z,78.99
2017-10-27T04:12:44.206Z,79.11
2017-10-27T04:15:12.455Z,78.36
2017-10-27T04:17:40.706Z,78.65
2017-10-27T04:20:08.949Z,77.97
2017-10-27T04:22:37.203Z,78.43
2017-10-27T04:25:05.450Z,78.66
2017-10-27T04:27:33.703Z,78.65
2017-10-27T04:30:02.727Z,79.11
2017-10-27T04:32:30.967Z,79.61
2017-10-27T04:34:59.978Z,79.81
2017-10-27T04:37:28.256Z,80.42
2017-10-27T04:51:46.478Z,85.65
2017-10-27T04:54:14.739Z,85.93
2017-10-27T04:56:42.983Z,86.04
2017-10-27T04:59:11.230Z,86.55
2017-10-27T05:01:39.473Z,86.90
2017-10-27T05:04:07.722Z,86.59
2017-10-27T05:06:36.725Z,87.55
2017-10-27T05:09:05.733Z,87.04
2017-10-27T05:11:33.972Z,87.08
2017-10-27T05:14:02.237Z,87.36
2017-10-27T05:16:36.066Z,87.65
2017-10-27T05:19:09.905Z,87.72
2017-10-27T05:21:43.644Z,88.00
2017-10-27T05:24:17.361Z,87.94
2017-10-27T05:26:45.601Z,88.50
2017-10-27T05:29:13.838Z,88.57
2017-10-27T05:31:42.840Z,88.80
2017-10-27T05:34:11.089Z,89.20
2017-10-27T05:36:40.097Z,89.15
2017-10-27T05:39:09.118Z,89.12
2017-10-27T05:41:37.358Z,89.11
2017-10-27T05:44:06.374Z,88.99
2017-10-27T05:46:34.614Z,89.08
2017-10-27T05:49:02.861Z,89.42
2017-10-27T05:51:31.104Z,88.99
2017-10-27T05:53:59.351Z,88.64
2017-10-27T05:56:28.369Z,88.62
2017-10-27T05:58:56.606Z,88.82
2017-10-27T06:01:24.846Z,88.33
2017-10-27T06:03:53.079Z,88.00
2017-10-27T06:06:22.081Z,87.86
2017-10-27T06:08:50.341Z,87.55
2017-10-27T06:11:19.355Z,87.72
2017-10-27T06:13:47.597Z,88.15
2017-10-27T06:16:15.839Z,88.59
2017-10-27T06:18:44.097Z,87.86
2017-10-27T06:21:12.331Z,87.72
2017-10-27T06:23:41.334Z,87.71
2017-10-27T06:26:10.345Z,87.69
2017-10-27T06:28:38.587Z,87.64
2017-10-27T06:31:06.817Z,87.99
2017-10-27T06:33:35.067Z,88.50
2017-10-27T06:36:03.310Z,88.76
2017-10-27T06:38:31.562Z,88.50
2017-10-27T06:40:59.808Z,88.23
2017-10-27T06:43:28.050Z,87.66
2017-10-27T06:45:57.070Z,88.28
2017-10-27T06:48:25.324Z,87.54
2017-10-27T06:50:54.322Z,86.92
2017-10-27T06:53:22.561Z,87.14
2017-10-27T06:55:50.807Z,86.02
2017-10-27T06:58:19.054Z,86.34
2017-10-27T07:00:47.286Z,84.75
2017-10-27T07:03:15.531Z,84.99
2017-10-27T07:05:43.770Z,85.92
2017-10-27T07:08:12.026Z,85.58
2017-10-27T07:10:40.262Z,86.24
2017-10-27T07:13:08.502Z,85.92
2017-10-27T07:15:36.739Z,85.92
2017-10-27T07:18:04.977Z,85.37
2017-10-27T07:20:33.227Z,85.67
2017-10-27T07:23:01.474Z,85.56
2017-10-27T07:25:29.706Z,85.22
2017-10-27T07:27:57.949Z,85.39
2017-10-27T07:30:26.189Z,85.43
2017-10-27T07:32:54.429Z,84.96
2017-10-27T07:35:22.679Z,84.54
2017-10-27T07:37:50.914Z,85.41
2017-10-27T07:40:19.155Z,85.14
2017-10-27T07:42:47.399Z,84.89
2017-10-27T07:45:16.402Z,84.35
2017-10-27T07:47:44.642Z,84.46
2017-10-27T07:50:12.880Z,84.10
2017-10-27T07:52:41.114Z,83.76
2017-10-27T07:55:09.363Z,83.73
2017-10-27T07:57:37.604Z,82.30
2017-10-27T08:00:05.850Z,83.41
2017-10-27T08:02:34.085Z,82.11
2017-10-27T08:05:02.340Z,82.21
2017-10-27T08:07:30.587Z,80.95
2017-10-27T08:09:58.833Z,81.29
2017-10-27T08:12:27.848Z,80.53
2017-10-27T08:14:56.103Z,80.54
2017-10-27T08:17:25.117Z,79.96
2017-10-27T08:19:53.372Z,79.77
2017-10-27T08:22:22.384Z,79.67
2017-10-27T08:24:50.643Z,79.50
2017-10-27T08:27:19.665Z,78.37
2017-10-27T08:29:47.914Z,78.80
2017-10-27T08:32:16.168Z,77.82
2017-10-27T08:34:44.413Z,77.55
2017-10-27T08:37:12.674Z,77.68
2017-10-27T08:39:40.921Z,76.93
2017-10-27T08:42:09.170Z,76.28
2017-10-27T08:44:37.423Z,75.13
2017-10-27T08:47:05.676Z,75.93
2017-10-27T08:49:33.932Z,77.07
2017-10-27T08:52:02.174Z,77.27
2017-10-27T08:54:31.190Z,76.10
2017-10-27T08:56:59.436Z,75.36
2017-10-27T08:59:27.681Z,75.02
2017-10-27T09:01:55.931Z,74.05
2017-10-27T09:04:24.182Z,73.97
2017-10-27T09:06:53.194Z,72.97
2017-10-27T09:09:21.443Z,72.15
2017-10-27T09:11:50.465Z,71.37
2017-10-27T09:14:18.708Z,70.64
2017-10-27T09:16:47.717Z,71.19
2017-10-27T09:19:15.974Z,71.55
2017-10-27T09:21:44.981Z,70.48
2017-10-27T09:24:14.002Z,70.69
2017-10-27T09:26:42.261Z,70.60
2017-10-27T09:29:10.511Z,69.32
2017-10-27T09:31:39.517Z,69.63
2017-10-27T09:34:08.539Z,67.75
2017-10-27T09:36:36.778Z,68.52
2017-10-27T09:39:05.797Z,68.32
2017-10-27T09:41:34.038Z,67.40
2017-10-27T09:44:03.062Z,67.43
2017-10-27T09:46:31.306Z,66.94
2017-10-27T09:49:00.334Z,66.89
2017-10-27T09:51:28.581Z,66.99
2017-10-27T09:53:57.614Z,67.69
2017-10-27T09:56:26.027Z,66.93
2017-10-27T09:58:54.283Z,66.65
2017-10-27T10:01:22.542Z,66.67
2017-10-27T10:03:50.793Z,67.09
2017-10-27T10:06:19.046Z,67.50
2017-10-27T10:08:47.302Z,67.31
2017-10-27T10:11:15.546Z,66.07
2017-10-27T10:13:43.826Z,66.65
2017-10-27T10:16:12.066Z,65.41
2017-10-27T10:18:40.312Z,65.59
2017-10-27T10:21:08.563Z,64.21
2017-10-27T10:23:36.811Z,64.56
2017-10-27T10:26:05.057Z,64.63
2017-10-27T10:28:34.065Z,64.24
2017-10-27T10:31:02.330Z,64.45
2017-10-27T10:33:31.345Z,65.17
2017-10-27T10:35:59.599Z,65.26
2017-10-27T10:38:28.602Z,64.70
2017-10-27T10:40:56.857Z,65.20
2017-10-27T10:43:25.869Z,65.74
2017-10-27T10:45:54.881Z,64.93
2017-10-27T10:48:23.133Z,64.75
2017-10-27T10:50:52.147Z,63.98
2017-10-27T10:53:20.404Z,62.99
2017-10-27T10:55:49.420Z,63.08
2017-10-27T10:58:17.665Z,62.30
2017-10-27T11:00:46.688Z,60.18
2017-10-27T11:03:15.692Z,60.62
2017-10-27T11:05:44.713Z,59.64
2017-10-27T11:08:12.949Z,61.16
2017-10-27T11:10:41.973Z,61.36
2017-10-27T11:13:10.226Z,60.81
2017-10-27T11:15:39.246Z,59.83
2017-10-27T11:18:07.486Z,59.20
2017-10-27T11:20:36.510Z,59.84
2017-10-27T11:23:04.754Z,60.80
2017-10-27T11:25:33.782Z,60.28
2017-10-27T11:28:02.028Z,60.33
2017-10-27T11:30:31.042Z,60.28
2017-10-27T11:32:59.285Z,60.46
2017-10-27T11:35:28.307Z,60.42
2017-10-27T11:37:56.549Z,61.71
2017-10-27T11:40:25.563Z,60.65
2017-10-27T11:42:54.572Z,60.43
2017-10-27T11:45:22.823Z,59.59
2017-10-27T11:47:51.834Z,59.35
2017-10-27T11:50:20.086Z,59.06
2017-10-27T11:52:49.101Z,58.89
2017-10-27T11:55:17.345Z,59.54
2017-10-27T11:57:46.362Z,59.93
2017-10-27T12:00:14.613Z,59.28
2017-10-27T12:02:43.631Z,59.18
2017-10-27T12:05:11.886Z,57.81
2017-10-27T12:07:40.123Z,58.16
2017-10-27T12:10:08.377Z,55.06
2017-10-27T12:12:36.621Z,57.78
2017-10-27T12:15:05.649Z,58.26
2017-10-27T12:17:33.894Z,59.32
2017-10-27T12:20:02.918Z,58.03
2017-10-27T12:22:31.157Z,53.73
2017-10-27T12:25:00.169Z,53.30
2017-10-27T12:27:28.439Z,48.60
2017-10-27T12:29:57.435Z,48.55
2017-10-27T12:32:25.674Z,55.31
2017-10-27T12:34:53.929Z,54.00
2017-10-27T12:37:22.262Z,56.62
2017-10-27T12:39:50.509Z,57.13
2017-10-27T12:42:18.754Z,56.92
2017-10-27T12:44:47.002Z,57.09
2017-10-27T12:47:15.247Z,58.42
2017-10-27T12:49:44.259Z,57.98
2017-10-27T12:52:12.498Z,52.24
2017-10-27T12:54:40.751Z,56.46
2017-10-27T12:57:09.005Z,50.31
2017-10-27T12:59:37.251Z,56.43
2017-10-27T13:02:06.257Z,50.03
2017-10-27T13:04:34.509Z,47.04
2017-10-27T13:07:03.518Z,47.99
2017-10-27T13:09:31.761Z,46.77
2017-10-27T13:12:00.012Z,46.28
2017-10-27T13:14:28.260Z,45.94
2017-10-27T13:16:56.503Z,49.02
2017-10-27T13:19:25.510Z,45.73
2017-10-27T13:21:53.755Z,50.67
2017-10-27T13:24:21.994Z,51.14
2017-10-27T13:26:50.245Z,45.08
2017-10-27T13:29:18.491Z,48.73
2017-10-27T13:31:47.501Z,51.52
2017-10-27T13:34:15.755Z,47.48
2017-10-27T13:36:44.013Z,45.56
2017-10-27T13:39:12.244Z,46.73
2017-10-27T13:41:40.765Z,51.13
2017-10-27T13:44:13.499Z,44.32
2017-10-27T13:46:45.314Z,50.07
2017-10-27T13:49:30.107Z,51.51
2017-10-27T13:51:58.462Z,46.02
2017-10-27T13:54:26.813Z,46.17
2017-10-27T13:56:55.155Z,49.61
2017-10-27T13:59:23.495Z,52.46
2017-10-27T14:01:51.893Z,52.59
2017-10-27T14:04:21.006Z,52.78
2017-10-27T14:06:49.330Z,44.79
2017-10-27T14:09:17.643Z,50.12
2017-10-27T14:11:46.764Z,51.58
2017-10-27T14:14:22.628Z,52.12
2017-10-27T14:16:51.866Z,52.60
2017-10-27T14:19:21.061Z,46.65
2017-10-27T14:21:52.422Z,50.59
2017-10-27T14:24:27.922Z,44.20
2017-10-27T14:35:14.915Z,48.36
2017-10-27T14:37:43.319Z,49.29
2017-10-27T14:40:17.733Z,51.53
2017-10-27T14:45:46.108Z,53.24
2017-10-27T14:48:30.298Z,53.14
2017-10-27T14:50:58.820Z,53.14
2017-10-27T14:53:45.452Z,53.47
2017-10-27T16:19:42.507Z,61.13
2017-10-27T16:22:10.759Z,61.37
2017-10-27T16:24:39.766Z,61.25
2017-10-27T16:27:08.018Z,61.50
2017-10-27T16:29:37.026Z,61.44
2017-10-27T16:32:05.285Z,61.83
2017-10-27T16:34:34.311Z,62.41
2017-10-27T16:37:02.578Z,62.07
2017-10-27T16:39:30.821Z,62.01
2017-10-27T16:41:59.842Z,62.13
2017-10-27T16:44:28.087Z,62.37
2017-10-27T16:46:56.333Z,62.55
2017-10-27T16:49:24.584Z,62.93
2017-10-27T16:51:52.838Z,63.09
2017-10-27T16:54:21.094Z,63.49
2017-10-27T16:56:50.110Z,63.76
2017-10-27T16:59:18.352Z,63.78
2017-10-27T17:01:46.601Z,64.35
2017-10-27T17:04:14.851Z,64.57
2017-10-27T17:06:43.098Z,65.07
2017-10-27T17:09:12.123Z,65.15
2017-10-27T17:11:40.365Z,65.42
2017-10-27T17:14:09.387Z,65.70
2017-10-27T17:16:37.637Z,65.45
2017-10-27T17:19:06.649Z,65.75
2017-10-27T17:21:34.896Z,65.46
2017-10-27T17:24:03.142Z,65.93
2017-10-27T17:26:31.378Z,66.11
2017-10-27T17:28:59.630Z,66.12
2017-10-27T17:31:28.631Z,66.25
2017-10-27T17:33:56.882Z,66.79
2017-10-27T17:36:25.890Z,65.86
2017-10-27T17:38:54.914Z,65.70
2017-10-27T17:41:23.151Z,65.78
2017-10-27T17:43:52.158Z,65.93
2017-10-27T17:46:20.403Z,66.29
2017-10-27T17:48:48.650Z,66.89
2017-10-27T17:51:16.893Z,66.82
2017-10-27T17:53:45.147Z,66.43
2017-10-27T17:56:14.153Z,66.75
2017-10-27T17:58:42.401Z,67.45
2017-10-27T18:01:10.643Z,67.50
2017-10-27T18:03:38.885Z,67.60
2017-10-27T18:06:07.127Z,67.92
2017-10-27T18:08:35.369Z,67.79
2017-10-27T18:11:03.607Z,67.94
2017-10-27T18:13:31.852Z,68.27
2017-10-27T18:16:00.093Z,68.41
2017-10-27T18:18:28.330Z,69.13
2017-10-27T18:20:56.573Z,69.17
2017-10-27T18:23:24.817Z,69.74
2017-10-27T18:25:53.058Z,70.10
2017-10-27T18:28:21.297Z,70.39
2017-10-27T18:30:49.538Z,70.57
2017-10-27T18:33:17.777Z,70.47
2017-10-27T18:35:46.022Z,70.85
2017-10-27T18:38:14.267Z,71.12
2017-10-27T18:40:42.506Z,71.60
2017-10-27T18:43:10.774Z,71.99
2017-10-27T18:45:39.782Z,72.39
2017-10-27T18:48:08.023Z,72.70
2017-10-27T18:50:36.283Z,73.35
2017-10-27T18:53:04.513Z,73.48
2017-10-27T18:55:32.763Z,73.86
2017-10-27T18:58:01.757Z,74.06
2017-10-27T19:00:30.770Z,74.06
2017-10-27T19:02:59.015Z,74.21
2017-10-27T19:05:27.254Z,74.41
2017-10-27T19:07:55.500Z,74.51
2017-10-27T19:10:23.742Z,74.40
2017-10-27T19:12:52.752Z,74.54
2017-10-27T19:15:20.997Z,74.50
2017-10-27T19:17:49.238Z,74.37
2017-10-27T19:20:17.489Z,74.27
2017-10-27T19:22:45.729Z,74.39
2017-10-27T19:25:14.738Z,74.12
2017-10-27T19:27:43.747Z,74.33
2017-10-27T19:30:11.987Z,74.23
2017-10-27T19:32:40.232Z,74.40
2017-10-27T19:35:08.479Z,74.78
2017-10-27T19:37:36.715Z,74.68
2017-10-27T19:40:04.955Z,74.85
2017-10-27T19:42:33.186Z,75.39
2017-10-27T19:45:02.214Z,75.52
2017-10-27T19:47:30.446Z,75.80
2017-10-27T19:49:59.459Z,75.50
2017-10-27T19:52:27.722Z,75.89
2017-10-27T19:54:56.727Z,75.72
2017-10-27T19:57:24.977Z,75.36
2017-10-27T19:59:53.980Z,75.35
2017-10-27T20:02:22.990Z,75.35
2017-10-27T20:04:51.227Z,75.43
2017-10-27T20:07:19.466Z,75.28
2017-10-27T20:09:47.701Z,75.18
2017-10-27T20:12:15.946Z,75.18
2017-10-27T20:14:44.187Z,75.24
2017-10-27T20:17:12.438Z,75.16
2017-10-27T20:19:40.674Z,75.32
2017-10-27T20:22:08.919Z,75.28
2017-10-27T20:24:37.157Z,75.67
2017-10-27T20:27:05.406Z,75.57
2017-10-27T20:29:33.642Z,75.80
2017-10-27T20:32:01.891Z,76.06
2017-10-27T20:34:30.215Z,76.35
2017-10-27T20:37:00.416Z,76.47
2017-10-27T20:39:28.733Z,76.54
2017-10-27T20:41:56.978Z,76.47
2017-10-27T20:44:25.261Z,76.75
2017-10-27T20:46:54.360Z,76.84
2017-10-27T20:49:22.597Z,77.15
2017-10-27T20:51:50.841Z,77.56
2017-10-27T20:54:19.842Z,77.63
2017-10-27T20:56:48.112Z,77.61
2017-10-27T20:59:17.115Z,77.85
2017-10-27T21:01:45.395Z,77.70
2017-10-27T21:04:13.703Z,78.20
2017-10-27T21:06:41.943Z,78.67
2017-10-27T21:09:10.195Z,78.79
2017-10-27T21:11:39.199Z,78.70
2017-10-27T21:14:08.218Z,79.08
2017-10-27T21:16:36.457Z,78.92
2017-10-27T21:19:05.470Z,79.09
2017-10-27T21:21:33.710Z,79.04
2017-10-27T21:24:01.953Z,78.99
2017-10-27T21:26:30.189Z,78.93
2017-10-27T21:28:59.259Z,78.35
2017-10-27T21:31:27.494Z,78.30
2017-10-27T21:33:55.739Z,78.36
2017-10-27T21:36:23.986Z,78.33
2017-10-27T21:38:52.232Z,78.37
2017-10-27T21:41:20.475Z,78.23
2017-10-27T21:43:48.713Z,78.20
2017-10-27T21:46:16.951Z,78.20
2017-10-27T21:48:45.194Z,78.28
2017-10-27T21:51:13.438Z,78.09
2017-10-27T21:53:41.746Z,78.16
2017-10-27T21:56:09.977Z,78.39
2017-10-27T21:58:38.248Z,78.35
2017-10-27T22:01:06.493Z,78.48
2017-10-27T22:03:35.502Z,78.35
2017-10-27T22:06:03.742Z,78.47
2017-10-27T22:08:32.774Z,78.72
2017-10-27T22:11:01.031Z,78.62
2017-10-27T22:13:30.058Z,78.59
2017-10-27T22:15:58.359Z,78.83
2017-10-27T22:18:26.605Z,79.27
2017-10-27T22:20:54.849Z,79.18
2017-10-27T22:23:23.875Z,79.51
2017-10-27T22:25:52.118Z,79.46
2017-10-27T22:28:21.178Z,79.42
2017-10-27T22:30:49.419Z,78.88
2017-10-27T22:33:17.668Z,78.94
2017-10-27T22:35:46.680Z,79.47
2017-10-27T22:47:30.861Z,78.37
2017-10-27T22:49:59.187Z,78.14
2017-10-27T22:52:27.499Z,78.12
2017-10-27T22:55:00.400Z,77.75
2017-10-27T22:57:29.463Z,77.72
2017-10-27T22:59:57.739Z,77.68
2017-10-27T23:02:25.996Z,77.78
2017-10-27T23:04:54.270Z,77.93
2017-10-27T23:07:22.530Z,77.89
2017-10-27T23:09:50.804Z,78.05
2017-10-27T23:12:19.063Z,77.75
2017-10-27T23:14:47.347Z,77.66
2017-10-27T23:17:15.606Z,77.73
2017-10-27T23:26:09.646Z,77.66
2017-10-27T23:28:37.910Z,77.58
2017-10-27T23:31:06.150Z,77.54
2017-10-27T23:33:34.390Z,77.78
2017-10-27T23:36:02.631Z,77.63
2017-10-27T23:38:30.907Z,77.51
2017-10-27T23:40:59.150Z,77.54
2017-10-27T23:43:27.394Z,77.70
2017-10-27T23:45:55.636Z,77.67
2017-10-27T23:48:23.887Z,77.67
2017-10-27T23:50:52.882Z,77.96
2017-10-27T23:53:21.898Z,77.96
2017-10-27T23:55:50.133Z,78.13
2017-10-27T23:58:18.386Z,78.08
